Terminal Aerodrome Forecast
Issued by NWS

Home | Current Version | Previous Version | Text Only | Print | Product List | Glossary On
Versions: 1 2 3 4 5 6 7 8 9 10 11 12 13
001
FTUS44 KLZK 210520
TAFBPK
TAF
KBPK 210520Z 2106/2206 11007KT P6SM BKN250
     FM211200 12008G18KT P6SM SCT100 BKN250
     FM220000 10010G18KT P6SM VCTS BKN050CB OVC100 PROB30 2201/2206
      5SM -TSRA BR OVC025CB=

USA.gov is the U.S. government's official web portal to all federal, state and local government web resources and services.